Time;durP1;ratioP1;P1;durP2;ratioP2;P2;SDS_P1;SDS_P2;PMS_P1;PMS_P2;Temp;Humidity;BMP_temperature;BMP_pressure;BME280_temperature;BME280_humidity;BME280_pressure;Samples;Min_cycle;Max_cycle;Signal;HPM_P1;HPM_P2
2022/07/04 00:02:44;;;;;;;2.22;1.80;;;;;17.90;96436.00;;;;8377446;28;20225;-65
2022/07/04 00:06:47;;;;;;;3.40;1.75;;;;;17.90;96446.00;;;;8346508;28;20650;-64
2022/07/04 00:10:50;;;;;;;2.70;1.80;;;;;17.90;96445.00;;;;8338057;28;20232;-64
2022/07/04 00:14:55;;;;;;;1.75;1.60;;;;;17.90;96445.00;;;;8340434;28;20206;-64
2022/07/04 00:18:58;;;;;;;2.70;1.70;;;;;17.90;96441.00;;;;8342457;28;20776;-63
2022/07/04 00:23:01;;;;;;;2.97;1.70;;;;;17.90;96454.00;;;;8342756;28;20581;-64
2022/07/04 00:27:05;;;;;;;2.05;1.88;;;;;17.90;96456.00;;;;8338717;28;20212;-64
2022/07/04 00:31:10;;;;;;;1.50;1.50;;;;;17.90;96458.00;;;;8346901;28;20308;-64
2022/07/04 00:35:13;;;;;;;3.58;1.80;;;;;17.90;96468.00;;;;8341623;28;20197;-65
2022/07/04 00:39:17;;;;;;;5.47;2.33;;;;;18.00;96477.00;;;;8340174;28;20197;-63
2022/07/04 00:43:24;;;;;;;2.17;1.88;;;;;18.10;96477.00;;;;8341743;28;20259;-64
2022/07/04 00:47:29;;;;;;;1.80;1.73;;;;;18.10;96484.00;;;;8345138;28;20205;-63
2022/07/04 00:51:32;;;;;;;2.00;1.90;;;;;18.20;96473.00;;;;8345323;28;20221;-65
2022/07/04 00:55:36;;;;;;;3.67;1.95;;;;;18.30;96480.00;;;;8349101;28;20197;-64
2022/07/04 00:59:40;;;;;;;4.40;1.90;;;;;18.40;96486.00;;;;8341000;28;20228;-64
2022/07/04 01:03:44;;;;;;;1.75;1.65;;;;;18.40;96478.00;;;;8349149;28;20641;-64
2022/07/04 01:07:48;;;;;;;1.92;1.83;;;;;18.50;96489.00;;;;8348749;28;20205;-65
2022/07/04 01:11:51;;;;;;;2.15;2.05;;;;;18.60;96475.00;;;;8355262;28;20315;-65
2022/07/04 01:15:55;;;;;;;2.05;1.95;;;;;18.70;96480.00;;;;8345993;28;20569;-64
2022/07/04 01:20:00;;;;;;;2.90;2.33;;;;;18.80;96467.00;;;;8348897;28;20696;-64
2022/07/04 01:24:05;;;;;;;1.88;1.70;;;;;18.90;96454.00;;;;8344139;28;20204;-63
2022/07/04 01:28:08;;;;;;;3.53;1.85;;;;;18.90;96449.00;;;;8343438;28;20719;-65
2022/07/04 01:32:12;;;;;;;1.90;1.80;;;;;18.90;96453.00;;;;8357492;28;20221;-64
2022/07/04 01:36:15;;;;;;;4.22;1.83;;;;;19.00;96461.00;;;;8339065;28;20204;-64
2022/07/04 01:40:20;;;;;;;5.05;1.85;;;;;19.10;96467.00;;;;8356250;28;20205;-64
2022/07/04 01:44:23;;;;;;;6.38;1.88;;;;;19.10;96456.00;;;;8351799;28;21068;-65
2022/07/04 01:48:26;;;;;;;2.35;1.90;;;;;19.10;96444.00;;;;8340867;28;20284;-66
2022/07/04 01:52:29;;;;;;;4.00;2.08;;;;;19.00;96429.00;;;;8366216;28;20654;-65
2022/07/04 01:56:34;;;;;;;1.88;1.75;;;;;19.00;96438.00;;;;8345721;28;20239;-64
2022/07/04 02:04:58;;;;;;;4.57;3.15;;;;;19.00;96462.00;;;;8356596;28;20686;-64
2022/07/04 02:09:17;;;;;;;2.15;2.00;;;;;19.00;96469.00;;;;8347964;28;20193;-64
2022/07/04 02:13:21;;;;;;;2.00;1.90;;;;;19.00;96456.00;;;;8361110;28;20256;-65
2022/07/04 02:17:25;;;;;;;2.78;2.08;;;;;19.00;96452.00;;;;8353454;28;20205;-65
2022/07/04 02:21:28;;;;;;;2.38;2.05;;;;;18.90;96445.00;;;;8340247;28;20203;-65
2022/07/04 02:25:33;;;;;;;7.70;2.22;;;;;18.90;96435.00;;;;8331648;28;20288;-65
2022/07/04 02:29:37;;;;;;;2.70;1.85;;;;;18.80;96435.00;;;;8338136;28;20204;-66
2022/07/04 02:33:41;;;;;;;2.85;1.88;;;;;18.80;96435.00;;;;8325361;28;20232;-64
2022/07/04 02:37:44;;;;;;;6.43;1.98;;;;;18.70;96436.00;;;;8337103;28;20213;-65
2022/07/04 02:41:47;;;;;;;3.47;1.98;;;;;18.70;96433.00;;;;8334790;28;20844;-65
2022/07/04 02:45:59;;;;;;;3.80;2.20;;;;;18.70;96438.00;;;;8330200;28;20242;-66
2022/07/04 02:50:03;;;;;;;3.15;2.10;;;;;18.60;96435.00;;;;8332973;28;20198;-65
2022/07/04 02:54:06;;;;;;;4.45;2.33;;;;;18.50;96435.00;;;;8343536;28;20278;-67
2022/07/04 02:58:09;;;;;;;2.50;2.30;;;;;18.50;96428.00;;;;8343349;28;20193;-65
2022/07/04 03:02:14;;;;;;;3.67;1.90;;;;;18.50;96437.00;;;;8363658;22;20262;-65
2022/07/04 03:06:17;;;;;;;2.70;1.95;;;;;18.60;96443.00;;;;8379940;28;20196;-65
2022/07/04 03:10:21;;;;;;;3.20;1.90;;;;;18.60;96458.00;;;;8383778;28;20246;-65
2022/07/04 03:14:24;;;;;;;2.05;1.95;;;;;18.60;96471.00;;;;8389631;28;20202;-64
2022/07/04 03:18:29;;;;;;;4.40;2.00;;;;;18.60;96464.00;;;;8383243;28;20201;-65
2022/07/04 03:22:32;;;;;;;4.13;2.25;;;;;18.50;96460.00;;;;8386147;28;20669;-65
2022/07/04 03:26:36;;;;;;;2.40;2.20;;;;;18.50;96463.00;;;;8383104;28;20203;-64
2022/07/04 03:30:39;;;;;;;2.83;2.08;;;;;18.50;96473.00;;;;8378399;28;20232;-64
2022/07/04 03:34:44;;;;;;;2.58;2.13;;;;;18.60;96478.00;;;;8381032;28;20295;-65
2022/07/04 03:38:48;;;;;;;2.45;2.08;;;;;18.70;96488.00;;;;8384512;28;20212;-65
2022/07/04 03:42:51;;;;;;;2.00;1.90;;;;;18.80;96500.00;;;;8384568;28;20294;-66
2022/07/04 03:46:54;;;;;;;2.78;2.05;;;;;18.90;96507.00;;;;8383842;28;20275;-65
2022/07/04 03:50:59;;;;;;;2.10;2.00;;;;;19.00;96521.00;;;;8380786;28;20227;-65
2022/07/04 03:55:02;;;;;;;2.10;1.90;;;;;19.00;96510.00;;;;8384534;28;20692;-67
2022/07/04 03:59:05;;;;;;;2.25;1.75;;;;;19.10;96515.00;;;;8385310;28;20200;-66
2022/07/04 04:05:26;;;;;;;2.53;1.88;;;;;19.20;96526.00;;;;8349755;28;20314;-66
2022/07/04 04:07:33;;;;;;;2.15;1.90;;;;;19.30;96532.00;;;;8318503;28;20300;-65
2022/07/04 04:11:36;;;;;;;4.20;2.10;;;;;19.40;96542.00;;;;8313769;28;20348;-66
2022/07/04 04:15:39;;;;;;;6.72;2.10;;;;;19.30;96552.00;;;;8318761;28;20280;-65
2022/07/04 04:19:43;;;;;;;2.25;2.03;;;;;19.30;96544.00;;;;8318446;28;20277;-66
2022/07/04 04:23:48;;;;;;;5.07;2.22;;;;;19.30;96549.00;;;;8314008;28;20206;-64
2022/07/04 04:27:51;;;;;;;5.28;2.03;;;;;19.40;96541.00;;;;8314408;28;20200;-64
2022/07/04 04:31:54;;;;;;;3.15;2.40;;;;;19.40;96554.00;;;;8318234;28;20233;-66
2022/07/04 04:35:57;;;;;;;8.07;2.10;;;;;19.30;96557.00;;;;8319264;28;20205;-66
2022/07/04 04:40:02;;;;;;;5.55;2.20;;;;;19.40;96551.00;;;;8321630;28;20616;-65
2022/07/04 04:44:06;;;;;;;2.95;2.35;;;;;19.50;96554.00;;;;8318819;28;20201;-65
2022/07/04 04:48:09;;;;;;;2.13;1.98;;;;;19.70;96561.00;;;;8323702;28;20213;-66
2022/07/04 04:52:12;;;;;;;5.53;2.13;;;;;19.90;96563.00;;;;8321496;28;20312;-65
2022/07/04 04:56:17;;;;;;;2.05;1.92;;;;;20.10;96563.00;;;;8319757;28;20280;-65
2022/07/04 05:00:20;;;;;;;4.05;2.13;;;;;20.20;96559.00;;;;8322544;28;20198;-65
2022/07/04 05:04:23;;;;;;;2.13;2.03;;;;;20.40;96560.00;;;;8347156;28;20235;-65
2022/07/04 05:08:27;;;;;;;2.58;1.98;;;;;20.50;96560.00;;;;8349047;28;20208;-65
2022/07/04 05:12:32;;;;;;;2.80;2.05;;;;;20.70;96552.00;;;;8354309;28;20319;-64
2022/07/04 05:16:41;;;;;;;4.65;2.13;;;;;20.80;96560.00;;;;8354331;28;20201;-65
2022/07/04 05:20:44;;;;;;;5.00;2.38;;;;;20.90;96555.00;;;;8353192;28;20209;-63
2022/07/04 05:24:47;;;;;;;6.20;1.80;;;;;21.00;96560.00;;;;8346220;28;20293;-65
2022/07/04 05:28:52;;;;;;;2.85;1.88;;;;;21.10;96560.00;;;;8344920;28;20725;-65
2022/07/04 05:32:58;;;;;;;1.90;1.80;;;;;21.20;96578.00;;;;8349689;28;20877;-65
2022/07/04 05:37:01;;;;;;;1.90;1.80;;;;;21.20;96569.00;;;;8349261;28;20753;-65
2022/07/04 05:41:04;;;;;;;1.88;1.80;;;;;21.30;96573.00;;;;8347660;28;20196;-64
2022/07/04 05:45:10;;;;;;;2.30;1.92;;;;;21.40;96562.00;;;;8351074;28;20285;-66
2022/07/04 05:49:13;;;;;;;1.90;1.80;;;;;21.20;96568.00;;;;8348528;28;20618;-65
2022/07/04 05:53:16;;;;;;;2.10;2.00;;;;;21.00;96567.00;;;;8349410;28;20220;-65
2022/07/04 05:57:19;;;;;;;2.08;1.75;;;;;21.00;96557.00;;;;8352677;28;20650;-65
2022/07/04 06:01:24;;;;;;;6.07;1.70;;;;;21.40;96565.00;;;;8348497;28;20207;-66
2022/07/04 06:05:27;;;;;;;4.88;2.03;;;;;21.90;96560.00;;;;8319975;28;20646;-68
2022/07/04 06:09:30;;;;;;;2.72;2.53;;;;;22.30;96559.00;;;;8319091;28;20232;-70
2022/07/04 06:13:34;;;;;;;1.90;1.80;;;;;22.80;96575.00;;;;8314523;28;20308;-67
2022/07/04 06:17:38;;;;;;;2.25;1.90;;;;;23.20;96585.00;;;;8319422;28;20193;-67
2022/07/04 06:21:42;;;;;;;3.80;2.25;;;;;23.40;96590.00;;;;8321334;28;20205;-66
2022/07/04 06:25:46;;;;;;;3.33;1.90;;;;;23.70;96582.00;;;;8319560;28;20205;-67
2022/07/04 06:29:49;;;;;;;4.38;1.83;;;;;23.90;96596.00;;;;8320709;28;20589;-68
2022/07/04 06:38:18;;;;;;;1.80;1.70;;;;;24.50;96592.00;;;;8312805;28;20229;-66
2022/07/04 06:42:21;;;;;;;3.42;1.80;;;;;24.50;96593.00;;;;8315582;28;20197;-67
2022/07/04 06:46:25;;;;;;;4.18;1.70;;;;;24.60;96609.00;;;;8315682;28;20280;-65
2022/07/04 06:50:32;;;;;;;4.05;1.92;;;;;24.70;96610.00;;;;8315941;28;20209;-65
2022/07/04 06:54:43;;;;;;;2.25;1.73;;;;;24.80;96612.00;;;;8317504;28;20578;-66
2022/07/04 06:58:46;;;;;;;1.88;1.77;;;;;24.80;96616.00;;;;8317125;28;20574;-67
2022/07/04 07:02:49;;;;;;;1.90;1.73;;;;;24.90;96608.00;;;;8316392;28;20380;-68
2022/07/04 07:06:54;;;;;;;2.70;2.20;;;;;25.10;96618.00;;;;8314966;28;20931;-67
2022/07/04 07:10:57;;;;;;;2.03;1.83;;;;;25.30;96611.00;;;;8317698;28;20272;-65
2022/07/04 07:15:01;;;;;;;2.53;1.70;;;;;25.30;96621.00;;;;8318842;28;20666;-66
2022/07/04 07:19:04;;;;;;;3.13;1.98;;;;;25.40;96624.00;;;;8313054;28;20824;-66
2022/07/04 07:23:09;;;;;;;2.65;2.15;;;;;25.40;96627.00;;;;8311011;28;20656;-65
2022/07/04 07:27:13;;;;;;;1.92;1.83;;;;;25.40;96616.00;;;;8312335;28;20266;-66
2022/07/04 07:31:16;;;;;;;2.45;1.92;;;;;25.50;96617.00;;;;8311344;28;20204;-64
2022/07/04 07:35:19;;;;;;;1.70;1.70;;;;;25.60;96621.00;;;;8308795;28;20228;-66
2022/07/04 07:39:24;;;;;;;6.40;2.00;;;;;25.90;96619.00;;;;8314893;28;20196;-66
2022/07/04 07:43:27;;;;;;;3.58;2.15;;;;;26.20;96628.00;;;;8312346;28;20193;-65
2022/07/04 07:47:30;;;;;;;2.30;2.10;;;;;26.30;96621.00;;;;8308904;28;20248;-67
2022/07/04 07:51:34;;;;;;;4.97;1.80;;;;;26.80;96629.00;;;;8305072;28;20212;-67
2022/07/04 07:55:39;;;;;;;4.53;1.90;;;;;27.20;96627.00;;;;8310332;28;20698;-67
2022/07/04 07:59:42;;;;;;;4.32;2.15;;;;;27.60;96631.00;;;;8308416;28;20679;-66
2022/07/04 08:08:09;;;;;;;4.07;1.98;;;;;28.50;96627.00;;;;8312592;28;20885;-65
2022/07/04 08:12:14;;;;;;;2.55;2.20;;;;;28.70;96627.00;;;;8318751;28;20232;-65
2022/07/04 08:16:17;;;;;;;2.00;1.88;;;;;29.00;96613.00;;;;8317115;28;20200;-65
2022/07/04 08:20:27;;;;;;;2.00;1.90;;;;;29.10;96623.00;;;;8321268;28;20209;-64
2022/07/04 08:24:30;;;;;;;4.30;2.10;;;;;29.10;96621.00;;;;8321724;28;20189;-66
2022/07/04 08:28:35;;;;;;;3.20;2.28;;;;;29.00;96621.00;;;;8314425;28;20296;-65
2022/07/04 08:32:38;;;;;;;3.08;1.80;;;;;29.10;96624.00;;;;8311559;28;20231;-66
2022/07/04 08:36:42;;;;;;;2.78;2.40;;;;;28.90;96620.00;;;;8322362;28;20669;-65
2022/07/04 08:40:47;;;;;;;3.83;2.38;;;;;28.50;96613.00;;;;8321313;28;20422;-66
2022/07/04 08:44:54;;;;;;;2.40;1.88;;;;;28.70;96619.00;;;;8320271;28;20357;-66
2022/07/04 08:49:04;;;;;;;2.38;1.90;;;;;28.60;96623.00;;;;8321070;28;20251;-66
2022/07/04 08:53:10;;;;;;;4.95;1.83;;;;;28.60;96621.00;;;;8322016;28;20220;-65
2022/07/04 09:01:36;;;;;;;1.90;1.80;;;;;28.40;96616.00;;;;8326383;28;20241;-66
2022/07/04 09:05:40;;;;;;;3.30;2.10;;;;;28.20;96613.00;;;;8355653;28;20193;-65
2022/07/04 09:09:43;;;;;;;2.75;1.90;;;;;28.20;96613.00;;;;8352604;28;20232;-65
2022/07/04 09:13:53;;;;;;;4.45;2.50;;;;;28.40;96616.00;;;;8350931;28;20221;-65
2022/07/04 09:17:59;;;;;;;4.65;1.90;;;;;29.20;96621.00;;;;8351497;28;20201;-65
2022/07/04 09:22:11;;;;;;;2.58;2.15;;;;;30.00;96613.00;;;;8341651;28;20194;-66
2022/07/04 09:26:17;;;;;;;2.22;2.08;;;;;30.50;96616.00;;;;8343069;28;20299;-66
2022/07/04 09:30:22;;;;;;;2.08;1.80;;;;;31.00;96616.00;;;;8353056;28;20276;-66
2022/07/04 09:34:27;;;;;;;3.13;2.17;;;;;31.70;96616.00;;;;8353238;28;20916;-66
2022/07/04 09:38:31;;;;;;;2.95;1.60;;;;;32.10;96614.00;;;;8352732;28;20271;-66
2022/07/04 09:42:42;;;;;;;2.53;2.10;;;;;32.20;96615.00;;;;8344280;28;20193;-65
2022/07/04 09:46:45;;;;;;;2.10;2.00;;;;;32.30;96630.00;;;;8352058;28;20212;-65
2022/07/04 09:50:50;;;;;;;2.42;1.90;;;;;33.00;96632.00;;;;8346351;28;20647;-65
2022/07/04 09:54:57;;;;;;;1.67;1.58;;;;;34.10;96629.00;;;;8344072;28;20343;-65
2022/07/04 09:59:00;;;;;;;4.13;1.75;;;;;35.30;96633.00;;;;8353110;28;20201;-67
2022/07/04 10:03:18;;;;;;;2.78;1.70;;;;;35.20;96630.00;;;;8353355;28;20236;-67
2022/07/04 10:07:35;;;;;;;2.75;1.70;;;;;35.10;96633.00;;;;8351966;28;20229;-66
2022/07/04 10:11:41;;;;;;;3.13;2.38;;;;;35.50;96638.00;;;;8353179;28;20823;-66
2022/07/04 10:15:44;;;;;;;2.20;1.70;;;;;36.10;96642.00;;;;8353339;28;20240;-67
2022/07/04 10:19:50;;;;;;;1.50;1.40;;;;;35.20;96645.00;;;;8353292;28;20193;-65
2022/07/04 10:23:54;;;;;;;1.70;1.60;;;;;34.60;96646.00;;;;8350231;28;20683;-66
2022/07/04 10:27:58;;;;;;;6.30;1.70;;;;;35.00;96648.00;;;;8350922;28;20288;-66
2022/07/04 10:32:01;;;;;;;2.53;1.80;;;;;36.00;96638.00;;;;8353118;28;20271;-65
2022/07/04 10:36:14;;;;;;;2.08;1.60;;;;;36.10;96617.00;;;;8336631;28;21043;-66
2022/07/04 10:40:47;;;;;;;1.80;1.70;;;;;36.00;96613.00;;;;8344361;28;20205;-66
2022/07/04 10:44:51;;;;;;;3.03;1.67;;;;;36.30;96615.00;;;;8345910;28;20220;-67
2022/07/04 10:48:56;;;;;;;4.07;1.60;;;;;36.20;96624.00;;;;8347811;28;20651;-65
2022/07/04 10:53:11;;;;;;;1.83;1.65;;;;;36.00;96621.00;;;;8344588;28;20211;-66
2022/07/04 10:57:17;;;;;;;2.05;1.92;;;;;36.00;96619.00;;;;8343553;28;20717;-66
2022/07/04 11:01:20;;;;;;;5.38;1.90;;;;;36.20;96613.00;;;;8342554;28;20222;-65
2022/07/04 11:05:33;;;;;;;1.40;1.40;;;;;36.40;96610.00;;;;8312403;28;20263;-67
2022/07/04 11:09:38;;;;;;;2.50;1.70;;;;;36.50;96615.00;;;;8308752;28;20209;-66
2022/07/04 11:13:42;;;;;;;2.85;1.45;;;;;36.30;96618.00;;;;8308912;28;20295;-66
2022/07/04 11:17:47;;;;;;;1.60;1.50;;;;;36.00;96619.00;;;;8306999;28;20675;-66
2022/07/04 11:21:50;;;;;;;2.28;1.50;;;;;36.70;96614.00;;;;8319122;28;20197;-67
2022/07/04 11:25:56;;;;;;;3.70;1.65;;;;;36.90;96615.00;;;;8314195;28;20201;-65
2022/07/04 11:30:01;;;;;;;2.78;1.35;;;;;37.10;96612.00;;;;8313295;28;20277;-65
2022/07/04 11:34:04;;;;;;;3.22;1.60;;;;;37.50;96604.00;;;;8315163;28;20217;-65
2022/07/04 11:38:07;;;;;;;1.70;1.60;;;;;37.40;96596.00;;;;8309547;28;20208;-65
2022/07/04 11:46:32;;;;;;;1.70;1.50;;;;;37.70;96595.00;;;;8307643;28;20205;-66
2022/07/04 11:50:37;;;;;;;2.05;1.73;;;;;37.20;96579.00;;;;8319888;28;20659;-66
2022/07/04 11:54:41;;;;;;;3.42;1.70;;;;;36.60;96585.00;;;;8322394;28;20252;-65
2022/07/04 11:58:56;;;;;;;5.25;1.52;;;;;37.10;96585.00;;;;8322185;28;20197;-64
2022/07/04 12:03:02;;;;;;;5.63;1.83;;;;;37.30;96576.00;;;;8337503;28;20318;-65
2022/07/04 12:07:10;;;;;;;1.42;1.40;;;;;36.90;96579.00;;;;8350095;28;20278;-66
2022/07/04 12:11:13;;;;;;;1.75;1.50;;;;;36.90;96588.00;;;;8351553;28;20199;-66
2022/07/04 12:15:17;;;;;;;2.00;1.80;;;;;36.70;96572.00;;;;8357694;28;20259;-65
2022/07/04 12:19:21;;;;;;;3.65;2.35;;;;;36.70;96572.00;;;;8351247;28;20283;-66
2022/07/04 12:23:26;;;;;;;2.17;1.40;;;;;35.70;96576.00;;;;8355674;28;20204;-65
2022/07/04 12:27:30;;;;;;;5.53;1.88;;;;;35.80;96570.00;;;;8344612;28;20242;-64
2022/07/04 12:31:43;;;;;;;4.32;1.75;;;;;35.10;96568.00;;;;8354476;28;20189;-64
2022/07/04 12:35:49;;;;;;;3.40;1.67;;;;;34.10;96569.00;;;;8351501;28;20229;-65
2022/07/04 12:39:53;;;;;;;2.83;1.60;;;;;33.70;96568.00;;;;8346288;28;20227;-65
2022/07/04 12:43:57;;;;;;;3.40;1.70;;;;;34.10;96564.00;;;;8344391;28;20190;-65
2022/07/04 12:48:00;;;;;;;3.83;1.70;;;;;34.80;96564.00;;;;8343838;28;20196;-65
2022/07/04 12:52:13;;;;;;;3.97;1.70;;;;;34.40;96564.00;;;;8352167;28;20269;-65
2022/07/04 12:56:29;;;;;;;8.25;1.80;;;;;34.10;96557.00;;;;8353173;28;20338;-64
2022/07/04 13:00:32;;;;;;;1.80;1.70;;;;;33.70;96559.00;;;;8334336;28;20229;-66
2022/07/04 13:04:38;;;;;;;1.90;1.80;;;;;33.30;96552.00;;;;8324506;28;20286;-65
2022/07/04 13:08:43;;;;;;;3.08;1.58;;;;;33.20;96553.00;;;;8320331;28;20805;-65
2022/07/04 13:12:46;;;;;;;2.25;1.70;;;;;33.50;96551.00;;;;8317032;28;20289;-65
2022/07/04 13:16:49;;;;;;;1.35;1.30;;;;;34.30;96544.00;;;;8317450;28;20594;-65
2022/07/04 13:20:53;;;;;;;2.13;1.80;;;;;35.30;96543.00;;;;8319580;28;20284;-65
2022/07/04 13:25:00;;;;;;;4.35;1.80;;;;;36.00;96534.00;;;;8314187;28;20205;-65
2022/07/04 13:29:04;;;;;;;1.80;1.70;;;;;36.90;96539.00;;;;8307560;28;20224;-65
2022/07/04 13:33:13;;;;;;;2.08;1.70;;;;;36.40;96537.00;;;;8318145;28;20201;-66
2022/07/04 13:37:17;;;;;;;2.60;1.98;;;;;36.70;96526.00;;;;8317694;28;20236;-65
2022/07/04 13:41:22;;;;;;;3.20;1.50;;;;;37.30;96528.00;;;;8318960;28;20208;-65
2022/07/04 13:45:25;;;;;;;2.05;1.55;;;;;37.70;96525.00;;;;8308263;28;20288;-65
2022/07/04 13:49:28;;;;;;;2.60;1.48;;;;;38.00;96520.00;;;;8307624;28;20208;-65
2022/07/04 13:53:33;;;;;;;3.70;1.65;;;;;37.80;96507.00;;;;8316844;28;20284;-66
2022/07/04 13:57:38;;;;;;;1.60;1.50;;;;;37.20;96507.00;;;;8313404;28;20240;-66
2022/07/04 14:01:41;;;;;;;2.85;1.60;;;;;37.30;96495.00;;;;8271543;28;1245119;-66
2022/07/04 14:05:45;;;;;;;4.75;1.40;;;;;36.90;96502.00;;;;8346615;28;20205;-65
2022/07/04 14:09:48;;;;;;;4.53;1.55;;;;;37.20;96489.00;;;;8350102;28;20189;-64
2022/07/04 14:13:53;;;;;;;2.90;1.35;;;;;37.70;96491.00;;;;8349050;28;20277;-64
2022/07/04 14:17:57;;;;;;;1.42;1.42;;;;;37.80;96493.00;;;;8350669;28;20224;-65
2022/07/04 14:22:00;;;;;;;4.78;1.83;;;;;37.50;96488.00;;;;8348522;28;20200;-65
2022/07/04 14:26:04;;;;;;;1.98;1.60;;;;;37.80;96476.00;;;;8345564;28;20284;-64
2022/07/04 14:30:10;;;;;;;8.40;1.60;;;;;38.10;96468.00;;;;8339544;28;20287;-66
2022/07/04 14:34:13;;;;;;;2.92;1.67;;;;;37.50;96471.00;;;;8348375;28;20201;-64
2022/07/04 14:38:17;;;;;;;4.60;1.60;;;;;36.30;96475.00;;;;8348231;28;20288;-65
2022/07/04 14:42:20;;;;;;;2.92;1.40;;;;;36.50;96465.00;;;;8336003;28;20200;-65
2022/07/04 14:46:25;;;;;;;4.30;1.80;;;;;36.60;96463.00;;;;8339869;28;20710;-65
2022/07/04 14:50:29;;;;;;;1.70;1.60;;;;;37.10;96468.00;;;;8348918;28;20189;-65
2022/07/04 14:54:32;;;;;;;3.53;1.60;;;;;36.80;96460.00;;;;8348763;28;20236;-65
2022/07/04 14:58:35;;;;;;;4.13;1.50;;;;;36.30;96456.00;;;;8348735;28;20276;-65
2022/07/04 15:02:40;;;;;;;4.75;1.38;;;;;36.60;96450.00;;;;8344064;28;20236;-65
2022/07/04 15:06:44;;;;;;;6.85;1.50;;;;;35.90;96440.00;;;;8348239;28;20236;-64
2022/07/04 15:10:48;;;;;;;1.55;1.40;;;;;35.30;96445.00;;;;8352325;28;20283;-66
2022/07/04 15:15:02;;;;;;;1.70;1.60;;;;;35.10;96449.00;;;;8346857;28;20287;-65
2022/07/04 15:19:07;;;;;;;2.08;1.70;;;;;34.80;96444.00;;;;8351255;28;20193;-65
2022/07/04 15:27:30;;;;;;;1.70;1.60;;;;;33.00;96434.00;;;;8350742;28;20193;-65
2022/07/04 15:31:34;;;;;;;3.33;1.65;;;;;32.30;96435.00;;;;8347856;28;20285;-64
2022/07/04 15:35:39;;;;;;;5.03;1.83;;;;;32.10;96429.00;;;;8350366;28;20224;-66
2022/07/04 15:39:42;;;;;;;1.65;1.55;;;;;32.00;96432.00;;;;8351049;28;20666;-65
2022/07/04 15:43:45;;;;;;;1.58;1.50;;;;;32.20;96436.00;;;;8348947;28;20824;-66
2022/07/04 15:47:49;;;;;;;3.72;1.70;;;;;32.30;96430.00;;;;8348758;28;20296;-64
2022/07/04 15:51:53;;;;;;;2.47;1.80;;;;;32.40;96426.00;;;;8348790;28;20224;-65
2022/07/04 15:55:57;;;;;;;1.85;1.65;;;;;32.50;96429.00;;;;8351490;28;20222;-65
2022/07/04 16:00:00;;;;;;;3.33;2.22;;;;;32.30;96440.00;;;;8348824;28;20217;-65
2022/07/04 16:04:03;;;;;;;2.35;1.70;;;;;32.20;96429.00;;;;8346218;28;20427;-65
2022/07/04 16:08:08;;;;;;;2.63;1.50;;;;;32.40;96433.00;;;;8350485;28;20658;-65
2022/07/04 16:12:12;;;;;;;10.85;1.80;;;;;32.80;96431.00;;;;8348708;28;20291;-65
2022/07/04 16:16:15;;;;;;;1.67;1.55;;;;;33.10;96434.00;;;;8343935;28;20295;-65
2022/07/04 16:20:21;;;;;;;2.92;1.67;;;;;33.30;96424.00;;;;8344673;28;20805;-63
2022/07/04 16:24:26;;;;;;;1.77;1.67;;;;;33.90;96419.00;;;;8345929;28;20207;-65
2022/07/04 16:28:29;;;;;;;3.75;1.65;;;;;35.10;96423.00;;;;8346607;28;20211;-67
2022/07/04 16:32:34;;;;;;;4.00;1.75;;;;;35.80;96417.00;;;;8341877;28;20204;-65
2022/07/04 16:36:38;;;;;;;2.03;1.60;;;;;36.40;96416.00;;;;8354336;28;20224;-65
2022/07/04 16:40:43;;;;;;;2.75;1.60;;;;;36.30;96411.00;;;;8351158;28;20204;-67
2022/07/04 16:44:47;;;;;;;1.67;1.58;;;;;36.10;96417.00;;;;8346580;28;20753;-66
2022/07/04 16:48:50;;;;;;;2.95;1.42;;;;;36.30;96413.00;;;;8348861;28;20193;-64
2022/07/04 16:52:54;;;;;;;3.53;1.40;;;;;35.70;96419.00;;;;8349058;28;20203;-64
2022/07/04 16:56:59;;;;;;;1.65;1.55;;;;;34.90;96420.00;;;;8354552;28;20744;-65
2022/07/04 17:01:02;;;;;;;1.75;1.60;;;;;35.20;96432.00;;;;8350140;28;20199;-65
2022/07/04 17:05:06;;;;;;;4.57;1.40;;;;;35.50;96429.00;;;;8319293;28;20276;-65
2022/07/04 17:09:10;;;;;;;4.03;1.70;;;;;35.60;96428.00;;;;8315853;28;20202;-67
2022/07/04 17:13:14;;;;;;;1.73;1.63;;;;;35.20;96423.00;;;;8319618;28;20200;-65
2022/07/04 17:17:19;;;;;;;4.75;1.90;;;;;34.70;96423.00;;;;8320468;28;20403;-64
2022/07/04 17:21:23;;;;;;;1.77;1.67;;;;;34.00;96432.00;;;;8318214;28;20193;-65
2022/07/04 17:25:26;;;;;;;3.53;2.10;;;;;33.30;96440.00;;;;8312883;28;20674;-66
2022/07/04 17:29:31;;;;;;;3.15;1.80;;;;;32.90;96432.00;;;;8317422;28;20975;-64
2022/07/04 17:33:34;;;;;;;3.88;1.80;;;;;32.70;96433.00;;;;8311905;28;20212;-64
2022/07/04 17:37:38;;;;;;;1.95;1.60;;;;;32.30;96433.00;;;;8317462;28;20261;-64
2022/07/04 17:41:43;;;;;;;2.00;1.80;;;;;31.90;96436.00;;;;8315579;28;20280;-65
2022/07/04 17:45:47;;;;;;;2.78;1.77;;;;;31.90;96434.00;;;;8315578;28;20213;-65
2022/07/04 17:49:50;;;;;;;2.30;2.10;;;;;31.90;96435.00;;;;8316559;28;20606;-64
2022/07/04 17:53:54;;;;;;;3.75;1.55;;;;;31.80;96420.00;;;;8318339;28;20284;-64
2022/07/04 17:57:57;;;;;;;2.75;1.60;;;;;31.60;96412.00;;;;8313363;28;20233;-65
2022/07/04 18:02:02;;;;;;;9.15;1.80;;;;;31.30;96407.00;;;;8322598;28;20240;-65
2022/07/04 18:06:06;;;;;;;7.57;2.00;;;;;31.00;96411.00;;;;8346735;28;20266;-65
2022/07/04 18:10:11;;;;;;;2.85;1.90;;;;;30.70;96415.00;;;;8350526;28;20196;-65
2022/07/04 18:14:15;;;;;;;2.97;1.70;;;;;30.40;96395.00;;;;8350998;28;20193;-65
2022/07/04 18:18:19;;;;;;;2.72;1.63;;;;;30.10;96397.00;;;;8343414;28;20311;-64
2022/07/04 18:22:23;;;;;;;4.25;1.73;;;;;29.90;96394.00;;;;8349729;28;20203;-66
2022/07/04 18:26:27;;;;;;;4.53;1.90;;;;;29.60;96396.00;;;;8347702;28;20235;-65
2022/07/04 18:30:30;;;;;;;5.55;1.90;;;;;29.40;96395.00;;;;8344024;28;20216;-64
2022/07/04 18:34:37;;;;;;;4.18;1.80;;;;;29.00;96389.00;;;;8345382;28;20875;-64
2022/07/04 18:38:40;;;;;;;1.92;1.73;;;;;28.60;96382.00;;;;8341365;28;20227;-64
2022/07/04 18:47:04;;;;;;;2.72;1.63;;;;;27.80;96385.00;;;;8347567;28;20279;-63
2022/07/04 18:51:18;;;;;;;1.70;1.60;;;;;27.50;96393.00;;;;8345389;28;20203;-65
2022/07/04 18:55:21;;;;;;;3.72;1.63;;;;;27.30;96394.00;;;;8346639;28;20253;-65
2022/07/04 18:59:25;;;;;;;2.97;1.70;;;;;27.00;96405.00;;;;8341195;28;20246;-65
2022/07/04 19:03:28;;;;;;;4.88;1.80;;;;;26.90;96405.00;;;;8347343;28;20339;-67
2022/07/04 19:07:33;;;;;;;2.45;1.55;;;;;26.70;96406.00;;;;8346756;28;20589;-64
2022/07/04 19:11:36;;;;;;;4.13;1.45;;;;;26.50;96411.00;;;;8344656;28;20211;-65
2022/07/04 19:15:40;;;;;;;4.57;1.58;;;;;26.40;96414.00;;;;8342991;28;20207;-67
2022/07/04 19:19:43;;;;;;;1.90;1.70;;;;;26.30;96426.00;;;;8340050;28;20240;-64
2022/07/04 19:23:48;;;;;;;4.88;1.60;;;;;26.30;96438.00;;;;8347552;28;20565;-65
2022/07/04 19:27:52;;;;;;;1.70;1.60;;;;;26.30;96439.00;;;;8349365;28;20193;-65
2022/07/04 19:31:55;;;;;;;5.38;1.73;;;;;26.30;96458.00;;;;8346529;28;20714;-65
2022/07/04 19:35:59;;;;;;;1.40;1.40;;;;;26.20;96467.00;;;;8343017;28;20201;-66
2022/07/04 19:40:04;;;;;;;1.70;1.70;;;;;26.20;96472.00;;;;8349733;28;20196;-64
2022/07/04 19:44:08;;;;;;;10.55;1.80;;;;;26.00;96477.00;;;;8341882;28;20216;-64
2022/07/04 19:48:12;;;;;;;2.92;1.42;;;;;25.90;96477.00;;;;8345915;28;20231;-66
2022/07/04 19:52:33;;;;;;;3.00;1.60;;;;;25.80;96491.00;;;;8348603;28;20628;-66
2022/07/04 19:56:38;;;;;;;2.78;1.60;;;;;25.60;96492.00;;;;8346238;28;20604;-64
2022/07/04 20:00:41;;;;;;;4.72;1.90;;;;;25.50;96488.00;;;;8337836;28;20201;-65
2022/07/04 20:04:45;;;;;;;4.18;1.70;;;;;25.40;96498.00;;;;8318433;28;20244;-64
2022/07/04 20:08:48;;;;;;;2.25;1.63;;;;;25.30;96504.00;;;;8320203;28;20574;-65
2022/07/04 20:12:53;;;;;;;1.83;1.70;;;;;25.20;96498.00;;;;8313635;28;20660;-64
2022/07/04 20:16:56;;;;;;;1.88;1.65;;;;;25.10;96498.00;;;;8312348;28;20267;-65
2022/07/04 20:20:59;;;;;;;2.95;1.40;;;;;25.10;96503.00;;;;8321490;28;20326;-65
2022/07/04 20:25:04;;;;;;;1.73;1.63;;;;;25.00;96503.00;;;;8322198;28;20208;-65
2022/07/04 20:29:16;;;;;;;4.22;1.92;;;;;25.00;96513.00;;;;8320927;28;20313;-64
2022/07/04 20:33:19;;;;;;;4.47;1.90;;;;;24.90;96510.00;;;;8315218;28;20197;-64
2022/07/04 20:37:22;;;;;;;7.75;1.90;;;;;24.90;96502.00;;;;8320169;28;20231;-65
2022/07/04 20:41:26;;;;;;;2.15;1.70;;;;;24.70;96511.00;;;;8318779;28;20221;-66
2022/07/04 20:45:30;;;;;;;1.85;1.60;;;;;24.70;96508.00;;;;8323364;28;20293;-65
2022/07/04 20:49:34;;;;;;;3.03;2.10;;;;;24.60;96516.00;;;;8317973;28;20205;-64
2022/07/04 20:53:37;;;;;;;2.17;1.83;;;;;24.60;96512.00;;;;8316210;28;20198;-66
2022/07/04 20:57:40;;;;;;;2.40;1.80;;;;;24.50;96511.00;;;;8319503;28;20225;-64